Hanley, Canada
Current Conditions -  °F | °C
As of 11:00 AM on Thursday 30 Oct 2014 (Local Time) from CYXE Reporting Station
Overcast Overcast  
Wind Chill: 20°   Ceiling: 1500
Heat Index: 30°   Visibility: 15mi
Dew Point: 25°   Wind: 14mph
Humidity: 80%   Direction: 100°E
Pressure: 30.48"   Gusts: NA
Location:  51.62°N, 106.43°W
Report Text: CYXE 301700Z 10012KT 15SM OVC015 M01/M04 A3048 RMK SC8 SLP353
Loading
Personal Weather Stations






























Interactive Weather Map
Tropical Storm Tracking
New forecast layout! Learn more

10-Day Weather Forecast

Advertisements
Track Severe Weather on mobile